createdAt,value
2023-04-27T00:00:25.362Z,101490.84
2023-04-27T00:02:55.351Z,101497.81
2023-04-27T00:05:22.871Z,101500.59
2023-04-27T00:07:52.239Z,101500.84
2023-04-27T00:10:19.098Z,101497.75
2023-04-27T00:12:48.154Z,101500.56
2023-04-27T00:15:22.055Z,101495.47
2023-04-27T00:17:49.028Z,101498.25
2023-04-27T00:20:16.216Z,101503.25
2023-04-27T00:22:46.240Z,101493.38
2023-04-27T00:25:13.126Z,101502.44
2023-04-27T00:27:40.088Z,101495.34
2023-04-27T00:32:37.008Z,101499.63
2023-04-27T00:35:04.156Z,101490.72
2023-04-27T00:37:34.026Z,101489.31
2023-04-27T00:40:01.240Z,101487.75
2023-04-27T00:42:28.090Z,101488.94
2023-04-27T00:44:58.723Z,101498.16
2023-04-27T00:47:26.427Z,101486.03
2023-04-27T00:49:55.960Z,101494.84
2023-04-27T00:52:23.098Z,101484.38
2023-04-27T00:54:53.634Z,101487.50
2023-04-27T00:57:23.447Z,101492.25
2023-04-27T00:59:50.414Z,101487.72
2023-04-27T01:02:20.772Z,101493.81
2023-04-27T01:04:50.486Z,101492.59
2023-04-27T01:07:25.144Z,101488.66
2023-04-27T01:09:54.725Z,101493.22
2023-04-27T01:12:21.654Z,101496.38
2023-04-27T01:14:48.698Z,101494.91
2023-04-27T01:17:19.288Z,101496.06
2023-04-27T01:19:46.188Z,101501.50
2023-04-27T01:22:15.287Z,101503.22
2023-04-27T01:24:42.134Z,101496.34
2023-04-27T01:27:11.694Z,101497.59
2023-04-27T01:29:39.121Z,101497.78
2023-04-27T01:32:06.686Z,101500.13
2023-04-27T01:34:33.910Z,101506.41
2023-04-27T01:37:05.576Z,101507.09
2023-04-27T01:39:32.617Z,101510.13
2023-04-27T01:41:59.587Z,101516.13
2023-04-27T01:44:26.682Z,101515.94
2023-04-27T01:46:56.131Z,101517.84
2023-04-27T01:49:23.109Z,101520.53
2023-04-27T01:51:50.266Z,101523.91
2023-04-27T01:54:17.122Z,101526.69
2023-04-27T01:56:46.404Z,101529.28
2023-04-27T01:59:13.682Z,101526.13
2023-04-27T02:01:40.891Z,101536.34
2023-04-27T02:04:08.183Z,101536.34
2023-04-27T02:06:35.352Z,101542.25
2023-04-27T02:09:04.881Z,101547.78
2023-04-27T02:11:31.976Z,101544.94
2023-04-27T02:13:58.841Z,101550.41
2023-04-27T02:16:25.948Z,101542.41
2023-04-27T02:18:53.857Z,101543.78
2023-04-27T02:21:23.359Z,101546.28
2023-04-27T02:23:50.317Z,101556.81
2023-04-27T02:26:19.553Z,101557.00
2023-04-27T02:28:50.381Z,101558.28
2023-04-27T02:31:17.747Z,101564.00
2023-04-27T02:33:47.739Z,101556.16
2023-04-27T02:36:16.911Z,101559.81
2023-04-27T02:38:43.816Z,101562.06
2023-04-27T02:41:10.890Z,101559.19
2023-04-27T02:43:40.460Z,101558.13
2023-04-27T02:46:09.969Z,101566.72
2023-04-27T02:48:41.489Z,101566.91
2023-04-27T02:51:11.510Z,101565.63
2023-04-27T02:53:41.017Z,101552.53
2023-04-27T02:56:07.953Z,101552.97
2023-04-27T02:58:35.183Z,101558.41
2023-04-27T03:01:02.597Z,101561.84
2023-04-27T03:03:29.726Z,101562.56
2023-04-27T03:05:56.790Z,101566.69
2023-04-27T03:08:23.712Z,101565.03
2023-04-27T03:10:53.121Z,101562.38
2023-04-27T03:13:20.188Z,101562.25
2023-04-27T03:15:47.103Z,101562.78
2023-04-27T03:18:16.308Z,101563.88
2023-04-27T03:20:45.433Z,101561.91
2023-04-27T03:23:12.347Z,101562.59
2023-04-27T03:25:39.212Z,101564.19
2023-04-27T03:28:08.544Z,101572.03
2023-04-27T03:30:35.373Z,101574.41
2023-04-27T03:33:02.341Z,101576.75
2023-04-27T03:35:29.254Z,101578.38
2023-04-27T03:37:56.121Z,101566.34
2023-04-27T03:40:23.124Z,101571.84
2023-04-27T03:42:50.027Z,101568.81
2023-04-27T03:45:22.416Z,101574.41
2023-04-27T03:47:51.443Z,101575.03
2023-04-27T03:50:18.396Z,101577.63
2023-04-27T03:52:45.426Z,101577.63
2023-04-27T03:55:12.548Z,101574.31
2023-04-27T03:57:39.519Z,101582.69
2023-04-27T04:00:14.672Z,101584.50
2023-04-27T04:02:44.009Z,101583.66
2023-04-27T04:05:12.464Z,101582.69
2023-04-27T04:07:41.945Z,101584.09
2023-04-27T04:10:09.710Z,101582.38
2023-04-27T04:12:39.404Z,101586.25
2023-04-27T04:15:09.459Z,101586.88
2023-04-27T04:17:40.988Z,101587.97
2023-04-27T04:20:11.520Z,101593.00
2023-04-27T04:22:39.435Z,101586.47
2023-04-27T04:25:07.001Z,101589.91
2023-04-27T04:27:33.914Z,101591.06
2023-04-27T04:30:01.111Z,101590.53
2023-04-27T04:32:33.696Z,101597.41
2023-04-27T04:35:05.054Z,101585.19
2023-04-27T04:37:41.114Z,101596.66
2023-04-27T04:40:09.051Z,101600.09
2023-04-27T04:42:37.598Z,101596.78
2023-04-27T04:45:05.568Z,101598.91
2023-04-27T04:47:32.496Z,101606.75
2023-04-27T04:49:59.876Z,101608.47
2023-04-27T04:52:27.007Z,101609.84
2023-04-27T04:54:54.272Z,101612.00
2023-04-27T04:57:21.356Z,101613.94
2023-04-27T04:59:48.537Z,101611.66
2023-04-27T05:02:15.765Z,101616.22
2023-04-27T05:04:42.911Z,101625.13
2023-04-27T05:07:14.058Z,101619.97
2023-04-27T05:09:44.239Z,101616.19
2023-04-27T05:12:11.288Z,101621.00
2023-04-27T05:14:38.207Z,101617.84
2023-04-27T05:17:07.981Z,101623.31
2023-04-27T05:19:35.119Z,101617.38
2023-04-27T05:22:04.697Z,101621.22
2023-04-27T05:24:31.636Z,101624.97
2023-04-27T05:27:03.630Z,101617.78
2023-04-27T05:29:30.625Z,101632.06
2023-04-27T05:32:00.113Z,101632.34
2023-04-27T05:34:27.329Z,101631.81
2023-04-27T05:36:54.232Z,101639.91
2023-04-27T05:39:21.291Z,101633.84
2023-04-27T05:41:48.207Z,101630.06
2023-04-27T05:44:15.162Z,101628.94
2023-04-27T05:46:45.105Z,101624.16
2023-04-27T05:49:12.180Z,101619.88
2023-04-27T05:51:39.164Z,101629.19
2023-04-27T05:54:06.348Z,101630.16
2023-04-27T05:56:35.552Z,101637.03
2023-04-27T05:59:10.774Z,101636.06
2023-04-27T06:01:40.337Z,101633.97
2023-04-27T06:04:07.555Z,101635.91
2023-04-27T06:06:35.409Z,101637.50
2023-04-27T06:09:05.171Z,101639.72
2023-04-27T06:11:32.102Z,101638.97
2023-04-27T06:13:58.957Z,101634.03
2023-04-27T06:16:26.042Z,101645.91
2023-04-27T06:18:53.078Z,101644.41
2023-04-27T06:21:20.169Z,101647.66
2023-04-27T06:23:50.157Z,101646.19
2023-04-27T06:26:19.680Z,101644.88
2023-04-27T06:28:46.852Z,101650.41
2023-04-27T06:31:16.405Z,101647.09
2023-04-27T06:33:43.514Z,101644.47
2023-04-27T06:36:10.782Z,101644.94
2023-04-27T06:38:42.617Z,101642.94
2023-04-27T06:41:09.722Z,101644.09
2023-04-27T06:43:38.899Z,101647.09
2023-04-27T06:46:06.131Z,101637.44
2023-04-27T06:48:37.547Z,101645.25
2023-04-27T06:51:04.910Z,101647.16
2023-04-27T06:53:32.026Z,101653.47
2023-04-27T06:55:59.173Z,101649.66
2023-04-27T06:58:27.153Z,101652.44
2023-04-27T07:00:54.348Z,101645.03
2023-04-27T07:03:22.345Z,101653.16
2023-04-27T07:05:51.537Z,101652.47
2023-04-27T07:08:18.411Z,101656.50
2023-04-27T07:10:48.276Z,101643.75
2023-04-27T07:13:15.327Z,101648.00
2023-04-27T07:15:42.282Z,101657.22
2023-04-27T07:18:12.244Z,101646.66
2023-04-27T07:20:39.123Z,101658.16
2023-04-27T07:23:06.256Z,101652.84
2023-04-27T07:25:33.388Z,101661.91
2023-04-27T07:28:02.462Z,101672.88
2023-04-27T07:30:31.145Z,101666.41
2023-04-27T07:32:58.355Z,101672.75
2023-04-27T07:35:25.586Z,101670.44
2023-04-27T07:37:56.603Z,101675.09
2023-04-27T07:40:24.159Z,101677.50
2023-04-27T07:42:51.222Z,101682.22
2023-04-27T07:45:18.197Z,101685.81
2023-04-27T07:47:45.273Z,101679.91
2023-04-27T07:50:14.241Z,101682.03
2023-04-27T07:52:41.250Z,101682.72
2023-04-27T07:55:11.012Z,101676.69
2023-04-27T07:57:37.870Z,101690.13
2023-04-27T08:00:09.866Z,101681.94
2023-04-27T08:02:37.093Z,101674.38
2023-04-27T08:05:06.714Z,101672.97
2023-04-27T08:07:38.360Z,101678.63
2023-04-27T08:10:12.187Z,101679.81
2023-04-27T08:12:41.619Z,101678.72
2023-04-27T08:15:09.456Z,101676.19
2023-04-27T08:17:41.144Z,101680.09
2023-04-27T08:20:12.049Z,101677.78
2023-04-27T08:22:44.714Z,101681.78
2023-04-27T08:25:11.749Z,101680.03
2023-04-27T08:27:41.858Z,101679.16
2023-04-27T08:30:09.582Z,101686.53
2023-04-27T08:32:38.909Z,101690.22
2023-04-27T08:35:07.102Z,101681.94
2023-04-27T08:37:33.964Z,101679.38
2023-04-27T08:40:03.129Z,101672.19
2023-04-27T08:42:32.586Z,101675.66
2023-04-27T08:45:04.590Z,101670.31
2023-04-27T08:47:41.620Z,101662.84
2023-04-27T08:50:14.125Z,101662.50
2023-04-27T08:52:44.714Z,101658.41
2023-04-27T08:55:17.047Z,101661.13
2023-04-27T08:57:58.480Z,101656.72
2023-04-27T09:00:31.264Z,101661.47
2023-04-27T09:02:58.265Z,101670.59
2023-04-27T09:05:25.270Z,101659.38
2023-04-27T09:08:08.253Z,101653.50
2023-04-27T09:10:55.257Z,101657.56
2023-04-27T09:13:22.302Z,101660.88
2023-04-27T09:15:52.309Z,101658.47
2023-04-27T09:18:23.843Z,101662.13
2023-04-27T09:20:58.758Z,101662.59
2023-04-27T09:23:39.078Z,101660.06
2023-04-27T09:26:10.886Z,101664.88
2023-04-27T09:28:48.495Z,101659.09
2023-04-27T09:31:15.595Z,101657.94
2023-04-27T09:33:45.783Z,101652.84
2023-04-27T09:36:12.729Z,101661.84
2023-04-27T09:38:40.174Z,101651.97
2023-04-27T09:41:08.990Z,101648.28
2023-04-27T09:43:36.804Z,101654.03
2023-04-27T09:46:04.946Z,101644.63
2023-04-27T09:48:32.001Z,101643.97
2023-04-27T09:50:58.922Z,101638.88
2023-04-27T09:53:48.706Z,101650.97
2023-04-27T09:56:52.518Z,101648.50
2023-04-27T10:00:12.685Z,101649.72
2023-04-27T10:03:25.204Z,101638.38
2023-04-27T10:06:22.438Z,101642.44
2023-04-27T10:08:51.604Z,101649.31
2023-04-27T10:11:19.414Z,101641.56
2023-04-27T10:13:55.840Z,101646.22
2023-04-27T10:16:23.054Z,101627.03
2023-04-27T10:18:55.823Z,101630.53
2023-04-27T10:21:23.811Z,101626.38
2023-04-27T10:23:52.363Z,101629.56
2023-04-27T10:26:27.701Z,101627.78
2023-04-27T10:29:08.874Z,101627.22
2023-04-27T10:31:36.303Z,101626.50
2023-04-27T10:34:12.122Z,101625.34
2023-04-27T10:36:40.978Z,101637.25
2023-04-27T10:39:39.726Z,101642.22
2023-04-27T10:42:13.194Z,101638.19
2023-04-27T10:44:42.554Z,101642.34
2023-04-27T10:47:19.900Z,101637.00
2023-04-27T10:49:55.896Z,101638.22
2023-04-27T10:52:22.748Z,101630.56
2023-04-27T10:54:51.783Z,101634.25
2023-04-27T10:57:18.723Z,101630.19
2023-04-27T11:00:05.312Z,101631.13
2023-04-27T11:02:32.250Z,101631.81
2023-04-27T11:05:05.751Z,101638.28
2023-04-27T11:07:34.020Z,101637.78
2023-04-27T11:10:01.251Z,101638.47
2023-04-27T11:12:36.964Z,101626.44
2023-04-27T11:15:07.244Z,101622.41
2023-04-27T11:17:34.235Z,101629.69
2023-04-27T11:20:01.240Z,101625.34
2023-04-27T11:22:30.690Z,101619.97
2023-04-27T11:24:57.661Z,101614.84
2023-04-27T11:27:25.354Z,101625.72
2023-04-27T11:29:57.803Z,101617.56
2023-04-27T11:32:26.041Z,101628.69
2023-04-27T11:34:57.801Z,101628.56
2023-04-27T11:37:27.817Z,101621.22
2023-04-27T11:39:57.369Z,101619.38
2023-04-27T11:42:31.523Z,101625.78
2023-04-27T11:45:10.244Z,101621.88
2023-04-27T11:47:46.636Z,101621.91
2023-04-27T11:50:13.654Z,101618.22
2023-04-27T11:52:41.198Z,101631.28
2023-04-27T11:55:16.155Z,101626.16
2023-04-27T11:57:43.356Z,101619.03
2023-04-27T12:00:14.677Z,101619.63
2023-04-27T12:02:43.687Z,101612.84
2023-04-27T12:05:14.108Z,101620.84
2023-04-27T12:07:43.207Z,101625.88
2023-04-27T12:10:13.497Z,101636.53
2023-04-27T12:12:40.981Z,101629.72
2023-04-27T12:15:11.061Z,101627.22
2023-04-27T12:17:39.840Z,101620.53
2023-04-27T12:20:10.032Z,101624.97
2023-04-27T12:22:37.257Z,101624.78
2023-04-27T12:25:05.280Z,101629.22
2023-04-27T12:27:32.259Z,101633.28
2023-04-27T12:29:59.641Z,101623.19
2023-04-27T12:32:31.877Z,101622.81
2023-04-27T12:35:01.593Z,101626.03
2023-04-27T12:37:28.522Z,101621.25
2023-04-27T12:39:58.464Z,101631.91
2023-04-27T12:42:25.431Z,101620.56
2023-04-27T12:44:52.709Z,101628.50
2023-04-27T12:47:43.102Z,101624.94
2023-04-27T12:50:09.982Z,101624.38
2023-04-27T12:52:37.045Z,101623.19
2023-04-27T12:55:05.906Z,101624.91
2023-04-27T12:57:32.928Z,101631.03
2023-04-27T13:00:06.636Z,101626.72
2023-04-27T13:02:35.286Z,101628.47
2023-04-27T13:05:04.417Z,101627.91
2023-04-27T13:07:34.344Z,101629.50
2023-04-27T13:10:06.616Z,101640.97
2023-04-27T13:12:36.541Z,101629.66
2023-04-27T13:15:03.908Z,101632.88
2023-04-27T13:17:30.909Z,101642.72
2023-04-27T13:20:00.156Z,101634.69
2023-04-27T13:22:28.021Z,101631.69
2023-04-27T13:24:57.971Z,101623.28
2023-04-27T13:27:28.305Z,101623.06
2023-04-27T13:29:56.074Z,101615.59
2023-04-27T13:32:23.249Z,101621.13
2023-04-27T13:34:50.351Z,101629.88
2023-04-27T13:37:18.413Z,101619.06
2023-04-27T13:39:45.710Z,101618.34
2023-04-27T13:42:12.683Z,101622.53
2023-04-27T13:44:39.587Z,101632.13
2023-04-27T13:47:06.915Z,101623.63
2023-04-27T13:49:36.380Z,101614.16
2023-04-27T13:52:05.490Z,101620.22
2023-04-27T13:54:37.206Z,101624.59
2023-04-27T13:57:06.564Z,101622.94
2023-04-27T13:59:33.449Z,101618.28
2023-04-27T14:02:00.303Z,101616.53
2023-04-27T14:04:29.972Z,101615.00
2023-04-27T14:06:56.942Z,101621.13
2023-04-27T14:09:26.166Z,101616.22
2023-04-27T14:11:57.096Z,101614.16
2023-04-27T14:14:24.537Z,101612.56
2023-04-27T14:16:52.831Z,101606.78
2023-04-27T14:19:20.709Z,101611.78
2023-04-27T14:21:51.879Z,101610.22
2023-04-27T14:24:21.360Z,101606.28
2023-04-27T14:26:51.136Z,101603.44
2023-04-27T14:29:21.317Z,101600.78
2023-04-27T14:31:49.104Z,101597.56
2023-04-27T14:34:20.941Z,101596.44
2023-04-27T14:36:51.635Z,101593.81
2023-04-27T14:39:21.945Z,101591.31
2023-04-27T14:41:48.891Z,101596.19
2023-04-27T14:44:15.911Z,101590.13
2023-04-27T14:46:42.838Z,101585.63
2023-04-27T14:49:09.866Z,101588.22
2023-04-27T14:51:36.756Z,101584.34
2023-04-27T14:54:09.200Z,101589.25
2023-04-27T14:56:36.677Z,101591.50
2023-04-27T14:59:03.554Z,101588.44
2023-04-27T15:01:30.589Z,101586.00
2023-04-27T15:03:58.199Z,101588.69
2023-04-27T15:06:30.424Z,101589.94
2023-04-27T15:08:57.682Z,101588.44
2023-04-27T15:11:26.882Z,101576.75
2023-04-27T15:13:53.752Z,101591.00
2023-04-27T15:16:22.906Z,101582.38
2023-04-27T15:18:49.796Z,101591.47
2023-04-27T15:21:16.692Z,101583.19
2023-04-27T15:23:43.575Z,101574.91
2023-04-27T15:26:12.906Z,101579.44
2023-04-27T15:28:48.551Z,101582.13
2023-04-27T15:31:18.729Z,101585.56
2023-04-27T15:33:45.697Z,101576.97
2023-04-27T15:36:12.761Z,101582.50
2023-04-27T15:38:39.675Z,101578.41
2023-04-27T15:41:06.573Z,101577.88
2023-04-27T15:43:35.516Z,101581.13
2023-04-27T15:46:06.339Z,101571.97
2023-04-27T15:48:33.434Z,101570.75
2023-04-27T15:51:03.843Z,101580.09
2023-04-27T15:53:31.899Z,101579.34
2023-04-27T15:56:03.423Z,101573.78
2023-04-27T15:58:30.556Z,101557.53
2023-04-27T16:00:59.914Z,101564.16
2023-04-27T16:03:27.000Z,101546.19
2023-04-27T16:05:57.469Z,101554.25
2023-04-27T16:08:26.762Z,101557.66
2023-04-27T16:10:53.659Z,101550.13
2023-04-27T16:13:23.847Z,101544.44
2023-04-27T16:15:52.949Z,101546.97
2023-04-27T16:18:22.023Z,101548.97
2023-04-27T16:20:51.324Z,101552.44
2023-04-27T16:23:18.252Z,101554.63
2023-04-27T16:25:45.192Z,101543.03
2023-04-27T16:28:12.173Z,101544.81
2023-04-27T16:30:39.075Z,101546.81
2023-04-27T16:33:06.051Z,101550.31
2023-04-27T16:35:33.948Z,101541.03
2023-04-27T16:38:05.821Z,101531.38
2023-04-27T16:40:34.124Z,101538.50
2023-04-27T16:43:01.248Z,101541.78
2023-04-27T16:45:28.632Z,101541.16
2023-04-27T16:47:59.891Z,101546.28
2023-04-27T16:50:31.558Z,101545.91
2023-04-27T16:53:09.994Z,101542.75
2023-04-27T16:55:41.831Z,101540.63
2023-04-27T16:58:08.780Z,101547.69
2023-04-27T17:00:35.973Z,101552.66
2023-04-27T17:03:03.411Z,101539.28
2023-04-27T17:05:30.676Z,101542.06
2023-04-27T17:07:59.715Z,101548.28
2023-04-27T17:10:28.179Z,101549.44
2023-04-27T17:12:55.229Z,101552.28
2023-04-27T17:15:22.207Z,101554.59
2023-04-27T17:17:49.261Z,101558.53
2023-04-27T17:20:16.861Z,101552.56
2023-04-27T17:22:43.893Z,101561.38
2023-04-27T17:25:13.762Z,101559.00
2023-04-27T17:27:41.103Z,101562.69
2023-04-27T17:30:09.547Z,101564.72
2023-04-27T17:32:37.396Z,101566.44
2023-04-27T17:35:04.943Z,101558.31
2023-04-27T17:37:32.116Z,101555.03
2023-04-27T17:40:01.753Z,101560.19
2023-04-27T17:42:29.193Z,101555.41
2023-04-27T17:44:58.864Z,101552.00
2023-04-27T17:47:33.363Z,101555.78
2023-04-27T17:50:01.435Z,101547.56
2023-04-27T17:52:31.341Z,101549.28
2023-04-27T17:54:58.503Z,101553.19
2023-04-27T17:57:25.432Z,101548.28
2023-04-27T17:59:52.600Z,101537.22
2023-04-27T18:02:19.721Z,101532.28
2023-04-27T18:04:49.738Z,101537.06
2023-04-27T18:07:19.872Z,101542.50
2023-04-27T18:09:47.028Z,101534.50
2023-04-27T18:12:16.086Z,101548.63
2023-04-27T18:14:42.961Z,101541.63
2023-04-27T18:17:12.172Z,101536.94
2023-04-27T18:19:41.651Z,101544.53
2023-04-27T18:22:10.032Z,101548.81
2023-04-27T18:24:37.145Z,101545.78
2023-04-27T18:27:06.301Z,101548.34
2023-04-27T18:29:33.223Z,101559.03
2023-04-27T18:32:05.420Z,101560.94
2023-04-27T18:34:33.321Z,101555.31
2023-04-27T18:37:03.179Z,101556.00
2023-04-27T18:39:30.445Z,101559.03
2023-04-27T18:41:59.621Z,101553.06
2023-04-27T18:44:31.497Z,101556.63
2023-04-27T18:47:03.436Z,101561.69
2023-04-27T18:49:32.729Z,101556.94
2023-04-27T18:51:59.673Z,101554.53
2023-04-27T18:54:29.593Z,101554.69
2023-04-27T18:56:59.093Z,101558.19
2023-04-27T18:59:25.966Z,101561.91
2023-04-27T19:01:55.116Z,101561.38
2023-04-27T19:04:22.191Z,101559.47
2023-04-27T19:06:50.064Z,101563.25
2023-04-27T19:09:19.234Z,101562.72
2023-04-27T19:11:49.443Z,101561.81
2023-04-27T19:14:24.313Z,101568.22
2023-04-27T19:16:53.873Z,101565.88
2023-04-27T19:19:24.777Z,101576.44
2023-04-27T19:21:54.350Z,101574.16
2023-04-27T19:24:21.250Z,101581.78
2023-04-27T19:26:48.433Z,101576.97
2023-04-27T19:29:15.952Z,101574.81
2023-04-27T19:31:43.489Z,101575.91
2023-04-27T19:34:12.685Z,101577.28
2023-04-27T19:36:42.548Z,101573.56
2023-04-27T19:39:09.670Z,101574.88
2023-04-27T19:41:39.662Z,101576.16
2023-04-27T19:44:06.502Z,101581.97
2023-04-27T19:46:36.429Z,101570.63
2023-04-27T19:49:03.384Z,101571.31
2023-04-27T19:51:31.655Z,101567.31
2023-04-27T19:53:58.604Z,101563.25
2023-04-27T19:56:25.475Z,101568.25
2023-04-27T19:58:52.475Z,101569.03
2023-04-27T20:01:20.868Z,101567.69
2023-04-27T20:03:47.990Z,101565.22
2023-04-27T20:06:15.085Z,101566.16
2023-04-27T20:08:42.119Z,101567.16
2023-04-27T20:11:09.078Z,101554.81
2023-04-27T20:13:40.940Z,101565.44
2023-04-27T20:16:09.717Z,101560.56
2023-04-27T20:18:37.984Z,101570.94
2023-04-27T20:21:07.492Z,101566.22
2023-04-27T20:23:37.178Z,101570.88
2023-04-27T20:26:04.412Z,101567.38
2023-04-27T20:28:31.358Z,101562.41
2023-04-27T20:30:58.230Z,101558.53
2023-04-27T20:33:27.328Z,101564.34
2023-04-27T20:36:14.142Z,101562.69
2023-04-27T20:38:46.808Z,101570.63
2023-04-27T20:41:16.012Z,101568.34
2023-04-27T20:43:45.466Z,101570.66
2023-04-27T20:46:15.092Z,101569.19
2023-04-27T20:48:42.048Z,101555.88
2023-04-27T20:51:09.295Z,101554.56
2023-04-27T20:53:36.214Z,101561.59
2023-04-27T20:56:03.754Z,101554.47
2023-04-27T20:58:30.801Z,101559.88
2023-04-27T21:00:58.233Z,101563.72
2023-04-27T21:03:25.289Z,101561.09
2023-04-27T21:05:54.863Z,101558.88
2023-04-27T21:08:24.370Z,101554.56
2023-04-27T21:10:59.349Z,101560.00
2023-04-27T21:13:26.523Z,101561.97
2023-04-27T21:15:58.348Z,101560.59
2023-04-27T21:18:30.125Z,101555.06
2023-04-27T21:21:00.758Z,101558.84
2023-04-27T21:23:30.002Z,101564.97
2023-04-27T21:25:56.973Z,101563.50
2023-04-27T21:28:24.292Z,101567.53
2023-04-27T21:30:51.783Z,101561.53
2023-04-27T21:33:21.334Z,101554.41
2023-04-27T21:35:48.471Z,101550.19
2023-04-27T21:38:20.796Z,101550.47
2023-04-27T21:40:48.151Z,101538.59
2023-04-27T21:43:15.192Z,101545.88
2023-04-27T21:45:42.173Z,101537.00
2023-04-27T21:48:09.314Z,101541.25
2023-04-27T21:50:36.718Z,101541.00
2023-04-27T21:53:04.348Z,101546.75
2023-04-27T21:55:31.471Z,101543.31
2023-04-27T21:57:58.763Z,101535.28
2023-04-27T22:00:25.912Z,101536.13
2023-04-27T22:02:53.101Z,101531.00
2023-04-27T22:05:22.721Z,101525.34
2023-04-27T22:07:50.093Z,101530.69
2023-04-27T22:10:17.580Z,101522.06
2023-04-27T22:12:44.519Z,101526.63
2023-04-27T22:15:12.150Z,101527.53
2023-04-27T22:17:41.672Z,101523.38
2023-04-27T22:20:14.181Z,101523.31
2023-04-27T22:22:44.220Z,101521.72
2023-04-27T22:25:12.069Z,101527.84
2023-04-27T22:27:45.092Z,101516.53
2023-04-27T22:30:13.721Z,101506.91
2023-04-27T22:32:43.486Z,101511.13
2023-04-27T22:35:24.823Z,101513.13
2023-04-27T22:37:56.923Z,101507.00
2023-04-27T22:40:26.911Z,101503.94
2023-04-27T22:42:56.583Z,101497.72
2023-04-27T22:45:23.644Z,101512.03
2023-04-27T22:47:50.891Z,101512.28
2023-04-27T22:50:20.228Z,101499.66
2023-04-27T22:52:48.302Z,101503.22
2023-04-27T22:55:15.272Z,101493.22
2023-04-27T22:57:42.395Z,101500.03
2023-04-27T23:00:12.528Z,101493.47
2023-04-27T23:02:40.798Z,101491.63
2023-04-27T23:05:12.410Z,101497.06
2023-04-27T23:07:41.485Z,101491.78
2023-04-27T23:10:11.265Z,101487.56
2023-04-27T23:12:38.664Z,101482.69
2023-04-27T23:15:06.196Z,101475.16
2023-04-27T23:17:33.504Z,101476.72
2023-04-27T23:20:24.033Z,101477.88
2023-04-27T23:22:59.391Z,101476.44
2023-04-27T23:25:26.662Z,101476.16
2023-04-27T23:27:53.666Z,101479.31
2023-04-27T23:30:22.132Z,101470.50
2023-04-27T23:32:49.130Z,101477.06
2023-04-27T23:35:16.257Z,101470.50
2023-04-27T23:37:43.580Z,101463.53
2023-04-27T23:40:14.932Z,101463.97
2023-04-27T23:42:41.956Z,101465.13
2023-04-27T23:45:09.235Z,101465.41
2023-04-27T23:47:38.542Z,101462.13
2023-04-27T23:50:06.443Z,101456.13
2023-04-27T23:52:35.640Z,101445.44
2023-04-27T23:55:05.029Z,101450.47
2023-04-27T23:57:34.037Z,101454.00
